Time;durP1;ratioP1;P1;durP2;ratioP2;P2;SDS_P1;SDS_P2;PMS_P1;PMS_P2;Temp;Humidity;BMP_temperature;BMP_pressure;BME280_temperature;BME280_humidity;BME280_pressure;Samples;Min_cycle;Max_cycle;Signal;HPM_P1;HPM_P2
2023/11/18 00:00:58;;;;;;;15.73;11.18;;;10.00;66.80;11.80;102144.00;;;;5029721;28;20208;-75
2023/11/18 00:03:25;;;;;;;17.80;11.45;;;10.00;67.50;11.80;102150.00;;;;5036637;28;20318;-75
2023/11/18 00:05:52;;;;;;;16.50;11.25;;;9.90;66.70;11.80;102151.00;;;;5039915;28;20187;-75
2023/11/18 00:08:19;;;;;;;22.80;10.98;;;9.90;66.70;11.80;102154.00;;;;5036580;28;20200;-75
2023/11/18 00:10:47;;;;;;;16.30;10.68;;;9.90;66.70;11.70;102147.00;;;;5036881;28;20258;-75
2023/11/18 00:13:15;;;;;;;16.45;11.20;;;9.90;66.70;11.70;102145.00;;;;5046823;28;20200;-75
2023/11/18 00:15:45;;;;;;;17.05;10.63;;;9.80;66.60;11.70;102152.00;;;;5038236;28;20291;-75
2023/11/18 00:18:12;;;;;;;15.40;10.32;;;9.80;67.30;11.70;102141.00;;;;5032233;28;20207;-75
2023/11/18 00:20:39;;;;;;;15.15;11.07;;;9.80;66.60;11.60;102148.00;;;;5030491;28;20211;-75
2023/11/18 00:23:06;;;;;;;15.10;10.75;;;9.80;66.60;11.60;102140.00;;;;5029952;28;20671;-75
2023/11/18 00:25:35;;;;;;;15.38;10.57;;;9.70;66.60;11.60;102145.00;;;;5031426;28;20200;-75
2023/11/18 00:28:03;;;;;;;16.10;10.55;;;9.70;66.60;11.60;102152.00;;;;5029914;28;20278;-75
2023/11/18 00:30:30;;;;;;;15.27;10.40;;;9.70;66.60;11.60;102139.00;;;;5031529;28;20208;-75
2023/11/18 00:32:57;;;;;;;15.25;10.65;;;9.70;66.60;11.50;102132.00;;;;5031344;28;20591;-75
2023/11/18 00:35:24;;;;;;;15.13;10.68;;;9.70;66.70;11.50;102134.00;;;;5022305;28;20976;-75
2023/11/18 00:37:51;;;;;;;15.57;11.00;;;9.60;66.70;11.50;102132.00;;;;5031494;28;20223;-75
2023/11/18 00:40:18;;;;;;;16.58;10.85;;;9.60;66.80;11.50;102135.00;;;;5029790;28;20685;-75
2023/11/18 00:42:46;;;;;;;19.05;10.65;;;9.60;66.80;11.50;102129.00;;;;5030970;28;20767;-75
2023/11/18 00:45:14;;;;;;;15.80;10.80;;;9.60;66.90;11.40;102133.00;;;;5030880;28;20196;-75
2023/11/18 00:47:42;;;;;;;14.50;10.27;;;9.60;67.60;11.50;102133.00;;;;5030194;28;20196;-75
2023/11/18 00:50:09;;;;;;;13.98;10.43;;;9.60;66.90;11.40;102122.00;;;;5030376;28;20200;-75
2023/11/18 00:52:38;;;;;;;14.55;10.32;;;9.50;66.90;11.40;102133.00;;;;5030284;28;20204;-75
2023/11/18 00:55:07;;;;;;;15.50;11.00;;;9.50;67.00;11.40;102145.00;;;;5028523;28;20288;-75
2023/11/18 00:57:34;;;;;;;15.50;10.77;;;9.50;67.00;11.40;102137.00;;;;5029004;28;20284;-75
2023/11/18 01:00:02;;;;;;;16.65;10.90;;;9.50;67.10;11.50;102154.00;;;;5030058;28;20212;-75
2023/11/18 01:02:31;;;;;;;16.05;10.13;;;9.50;67.20;11.40;102150.00;;;;5031341;28;20270;-75
2023/11/18 01:04:58;;;;;;;14.70;10.60;;;9.50;67.30;11.50;102154.00;;;;5038245;28;20262;-75
2023/11/18 01:07:25;;;;;;;12.60;9.40;;;9.50;67.30;11.50;102162.00;;;;5029996;28;20207;-75
2023/11/18 01:09:52;;;;;;;14.10;10.18;;;9.60;67.50;11.50;102162.00;;;;5030898;28;20200;-75
2023/11/18 01:12:19;;;;;;;14.90;10.30;;;9.60;67.50;11.50;102151.00;;;;5030276;28;20196;-75
2023/11/18 01:14:46;;;;;;;15.45;10.75;;;9.60;67.50;11.50;102145.00;;;;5029639;28;20204;-75
2023/11/18 01:17:13;;;;;;;14.75;10.38;;;9.60;67.60;11.60;102153.00;;;;5029652;28;20208;-75
2023/11/18 01:19:42;;;;;;;15.40;11.00;;;9.70;67.70;11.60;102158.00;;;;5030110;28;20295;-75
2023/11/18 01:22:09;;;;;;;14.98;10.18;;;9.70;67.80;11.60;102155.00;;;;5035213;28;20298;-75
2023/11/18 01:24:36;;;;;;;14.85;11.05;;;9.70;67.70;11.60;102155.00;;;;5028965;28;20196;-75
2023/11/18 01:27:03;;;;;;;17.17;10.73;;;9.70;67.60;11.60;102149.00;;;;5030251;28;20196;-75
2023/11/18 01:29:30;;;;;;;13.55;9.20;;;9.70;67.50;11.60;102145.00;;;;5028290;28;20906;-76
2023/11/18 01:31:58;;;;;;;19.48;10.40;;;9.70;67.50;11.60;102147.00;;;;5029827;28;20206;-75
2023/11/18 01:34:25;;;;;;;14.27;10.30;;;9.70;67.50;11.60;102140.00;;;;5024508;28;20230;-75
2023/11/18 01:36:53;;;;;;;15.25;9.45;;;9.70;67.50;11.60;102152.00;;;;5029696;28;20727;-75
2023/11/18 01:39:21;;;;;;;13.20;9.52;;;9.70;67.40;11.60;102156.00;;;;5037664;28;20203;-75
2023/11/18 01:41:49;;;;;;;16.48;9.73;;;9.70;67.40;11.60;102157.00;;;;5029530;28;20254;-75
2023/11/18 01:44:17;;;;;;;14.43;10.32;;;9.70;67.40;11.60;102156.00;;;;5028876;28;20689;-75
2023/11/18 01:46:45;;;;;;;15.77;10.35;;;9.70;67.40;11.60;102149.00;;;;5020438;28;20188;-75
2023/11/18 01:49:13;;;;;;;17.90;10.63;;;9.70;67.40;11.70;102151.00;;;;5029047;28;20612;-75
2023/11/18 01:51:42;;;;;;;14.25;10.00;;;9.80;67.50;11.70;102153.00;;;;5029752;28;20223;-75
2023/11/18 01:54:15;;;;;;;14.10;9.70;;;9.70;67.50;11.70;102152.00;;;;5031249;28;20203;-75
2023/11/18 01:56:43;;;;;;;13.85;9.93;;;9.80;67.60;11.70;102143.00;;;;5028584;28;20232;-75
2023/11/18 01:59:17;;;;;;;15.00;10.32;;;9.70;67.50;11.70;102146.00;;;;5029979;28;20283;-75
2023/11/18 02:01:48;;;;;;;14.35;9.40;;;9.80;67.70;11.70;102150.00;;;;5028464;28;20215;-75
2023/11/18 02:04:15;;;;;;;16.98;10.27;;;9.80;67.70;11.70;102144.00;;;;5029870;28;20216;-75
2023/11/18 02:06:44;;;;;;;16.02;11.15;;;9.80;67.70;11.80;102148.00;;;;5028139;28;20203;-75
2023/11/18 02:09:13;;;;;;;16.40;11.15;;;9.80;67.70;11.80;102148.00;;;;5028839;28;20196;-75
2023/11/18 02:11:49;;;;;;;15.20;10.65;;;9.80;67.70;11.70;102148.00;;;;5033114;28;20210;-75
2023/11/18 02:14:18;;;;;;;15.05;9.77;;;9.90;67.80;11.80;102152.00;;;;5029750;28;20204;-75
2023/11/18 02:16:50;;;;;;;15.77;11.10;;;9.90;67.80;11.80;102154.00;;;;5028436;28;20197;-75
2023/11/18 02:19:21;;;;;;;20.05;11.30;;;9.90;67.80;11.80;102148.00;;;;5029585;28;20197;-75
2023/11/18 02:21:50;;;;;;;19.25;11.75;;;9.90;67.80;11.90;102153.00;;;;5028143;28;20584;-75
2023/11/18 02:24:30;;;;;;;15.73;11.60;;;9.90;67.80;11.80;102156.00;;;;5028911;28;20274;-75
2023/11/18 02:27:01;;;;;;;13.77;9.82;;;9.90;67.90;11.80;102158.00;;;;5029670;28;20202;-75
2023/11/18 02:29:35;;;;;;;14.85;10.82;;;10.00;67.90;11.90;102165.00;;;;5029194;28;20192;-75
2023/11/18 02:32:16;;;;;;;16.83;10.73;;;10.00;67.90;11.80;102163.00;;;;5026672;28;20196;-75
2023/11/18 02:34:55;;;;;;;14.45;10.40;;;10.00;67.90;11.90;102161.00;;;;5028801;28;20218;-76
2023/11/18 02:37:24;;;;;;;16.50;11.07;;;10.00;67.90;12.00;102155.00;;;;5028899;28;20242;-75
2023/11/18 02:40:03;;;;;;;17.25;11.57;;;10.00;67.90;11.90;102155.00;;;;5028313;28;20196;-76
2023/11/18 02:42:33;;;;;;;16.90;12.05;;;10.10;67.90;12.00;102148.00;;;;5028605;28;20240;-75
2023/11/18 02:45:00;;;;;;;16.38;10.98;;;10.00;67.80;12.00;102143.00;;;;5028934;28;20189;-75
2023/11/18 02:47:27;;;;;;;15.63;10.77;;;10.10;67.90;12.00;102141.00;;;;5036937;28;20196;-75
2023/11/18 02:50:05;;;;;;;17.42;10.93;;;10.10;67.80;12.00;102135.00;;;;5025281;28;20586;-75
2023/11/18 02:52:32;;;;;;;15.80;11.38;;;10.00;67.80;12.00;102136.00;;;;5026510;28;20281;-75
2023/11/18 02:54:59;;;;;;;16.67;11.52;;;10.00;67.70;12.00;102119.00;;;;5027909;28;20207;-75
2023/11/18 02:57:26;;;;;;;17.95;11.35;;;10.00;67.70;12.00;102114.00;;;;5028097;28;20227;-75
2023/11/18 02:59:56;;;;;;;15.20;11.13;;;10.10;67.80;12.00;102113.00;;;;5028091;28;20259;-75
2023/11/18 03:02:23;;;;;;;17.85;11.65;;;10.10;67.80;12.00;102110.00;;;;5026300;28;20203;-76
2023/11/18 03:04:49;;;;;;;16.58;10.70;;;10.10;67.80;12.00;102110.00;;;;5027884;28;20566;-75
2023/11/18 03:07:16;;;;;;;14.10;10.60;;;10.10;67.80;12.00;102110.00;;;;5028349;28;20203;-75
2023/11/18 03:09:43;;;;;;;14.32;11.18;;;10.10;67.80;12.00;102115.00;;;;5027344;28;20563;-75
2023/11/18 03:12:11;;;;;;;16.05;10.55;;;10.10;67.80;12.00;102115.00;;;;5025456;28;20204;-75
2023/11/18 03:14:38;;;;;;;14.48;10.73;;;10.10;67.80;12.00;102111.00;;;;5027933;28;20204;-75
2023/11/18 03:17:09;;;;;;;14.73;10.13;;;10.10;67.80;12.00;102111.00;;;;5026709;28;20727;-75
2023/11/18 03:19:36;;;;;;;12.85;10.07;;;10.10;67.80;12.00;102110.00;;;;5031935;28;20259;-75
2023/11/18 03:22:04;;;;;;;13.90;10.05;;;10.10;67.80;12.00;102110.00;;;;5030481;28;20689;-75
2023/11/18 03:24:31;;;;;;;13.80;10.85;;;10.10;67.80;12.00;102109.00;;;;5027157;28;20232;-75
2023/11/18 03:26:58;;;;;;;15.23;10.48;;;10.10;67.80;12.00;102093.00;;;;5027881;28;20198;-75
2023/11/18 03:29:25;;;;;;;15.02;10.20;;;10.10;67.90;12.00;102101.00;;;;5026516;28;20202;-75
2023/11/18 03:31:53;;;;;;;15.45;10.25;;;10.10;67.90;12.00;102105.00;;;;5027744;28;20184;-75
2023/11/18 03:34:21;;;;;;;14.77;10.40;;;10.10;67.90;12.10;102107.00;;;;5026540;28;20224;-75
2023/11/18 03:36:48;;;;;;;16.90;11.05;;;10.10;67.90;12.10;102097.00;;;;5035112;28;20299;-75
2023/11/18 03:39:15;;;;;;;15.23;10.57;;;10.10;67.90;12.10;102086.00;;;;5030592;28;20558;-75
2023/11/18 03:41:44;;;;;;;14.55;11.32;;;10.20;68.00;12.10;102089.00;;;;5024567;28;20203;-75
2023/11/18 03:44:11;;;;;;;16.13;11.27;;;10.20;68.00;12.10;102084.00;;;;5025665;28;20223;-75
2023/11/18 03:46:38;;;;;;;15.57;10.43;;;10.20;68.00;12.10;102069.00;;;;5027682;28;20204;-75
2023/11/18 03:49:05;;;;;;;16.25;11.05;;;10.20;68.00;12.10;102064.00;;;;5028100;28;20693;-75
2023/11/18 03:51:34;;;;;;;14.07;10.50;;;10.20;68.00;12.10;102052.00;;;;5026545;28;20200;-75
2023/11/18 03:54:01;;;;;;;15.18;10.82;;;10.20;68.10;12.10;102050.00;;;;5024479;28;20199;-75
2023/11/18 03:56:28;;;;;;;14.35;10.48;;;10.20;68.10;12.10;102046.00;;;;5026569;28;20724;-75
2023/11/18 03:58:55;;;;;;;13.07;10.48;;;10.20;68.10;12.20;102037.00;;;;5027820;28;20192;-75
2023/11/18 04:01:22;;;;;;;14.38;10.70;;;10.20;68.10;12.20;102048.00;;;;5026570;28;20204;-75
2023/11/18 04:03:50;;;;;;;14.32;10.70;;;10.20;68.10;12.10;102037.00;;;;5024814;28;20227;-75
2023/11/18 04:06:17;;;;;;;13.25;9.88;;;10.20;68.10;12.10;102032.00;;;;5027545;28;20200;-75
2023/11/18 04:08:47;;;;;;;14.75;10.45;;;10.20;68.00;12.20;102027.00;;;;5026834;28;20192;-75
2023/11/18 04:11:15;;;;;;;14.18;10.90;;;10.20;68.10;12.20;102021.00;;;;5027701;28;20250;-75
2023/11/18 04:13:42;;;;;;;12.82;9.65;;;10.30;68.20;12.20;102027.00;;;;5025115;28;20208;-75
2023/11/18 04:16:13;;;;;;;13.55;10.82;;;10.30;68.20;12.20;102030.00;;;;5027858;28;20545;-75
2023/11/18 04:18:41;;;;;;;13.27;10.10;;;10.30;68.20;12.20;102031.00;;;;5027587;28;20196;-75
2023/11/18 04:21:09;;;;;;;12.80;9.48;;;10.30;68.20;12.20;102033.00;;;;5028193;28;20188;-75
2023/11/18 04:23:37;;;;;;;12.65;9.65;;;10.30;68.20;12.20;102034.00;;;;5026522;28;20290;-75
2023/11/18 04:26:07;;;;;;;14.40;9.85;;;10.30;68.20;12.20;102022.00;;;;5026315;28;20279;-75
2023/11/18 04:28:34;;;;;;;14.07;10.55;;;10.30;68.20;12.20;102018.00;;;;5028280;28;20580;-75
2023/11/18 04:31:02;;;;;;;15.20;10.80;;;10.30;68.20;12.20;102004.00;;;;5027334;28;20574;-75
2023/11/18 04:33:30;;;;;;;13.80;10.35;;;10.30;68.20;12.20;102000.00;;;;5025214;28;20218;-75
2023/11/18 04:35:58;;;;;;;15.15;10.18;;;10.30;68.20;12.20;102002.00;;;;5027300;28;20201;-75
2023/11/18 04:38:26;;;;;;;13.00;10.25;;;10.30;68.20;12.30;101991.00;;;;5024554;28;20200;-75
2023/11/18 04:40:54;;;;;;;14.48;9.25;;;10.30;68.20;12.30;101986.00;;;;5031317;28;20571;-75
2023/11/18 04:43:23;;;;;;;16.52;10.43;;;10.40;68.30;12.30;101985.00;;;;5030008;28;20220;-75
2023/11/18 04:45:50;;;;;;;12.90;9.82;;;10.40;68.30;12.30;101993.00;;;;5031426;28;20201;-75
2023/11/18 04:48:18;;;;;;;14.95;10.60;;;10.40;68.30;12.30;101981.00;;;;5031075;28;20241;-75
2023/11/18 04:50:45;;;;;;;14.27;10.30;;;10.40;68.30;12.30;101981.00;;;;5031326;28;20201;-75
2023/11/18 04:53:12;;;;;;;16.02;10.35;;;10.40;68.30;12.30;101980.00;;;;5029000;28;20200;-75
2023/11/18 04:55:39;;;;;;;14.38;10.57;;;10.40;68.30;12.30;101983.00;;;;5030433;28;20577;-75
2023/11/18 04:58:06;;;;;;;14.48;10.73;;;10.40;68.30;12.30;101985.00;;;;5030278;28;20229;-75
2023/11/18 05:00:34;;;;;;;13.85;11.00;;;10.40;68.30;12.30;101981.00;;;;5029770;28;20259;-76
2023/11/18 05:03:03;;;;;;;15.20;10.70;;;10.40;68.30;12.40;101987.00;;;;5030186;28;20208;-75
2023/11/18 05:05:30;;;;;;;14.45;10.57;;;10.40;68.30;12.40;101983.00;;;;5030444;28;20238;-75
2023/11/18 05:07:57;;;;;;;15.15;10.88;;;10.40;68.30;12.40;101976.00;;;;5030797;28;20211;-75
2023/11/18 05:10:24;;;;;;;12.93;10.32;;;10.50;68.40;12.40;101975.00;;;;5030691;28;20232;-75
2023/11/18 05:12:55;;;;;;;15.98;11.00;;;10.50;69.00;12.40;101980.00;;;;5029365;28;20239;-75
2023/11/18 05:15:24;;;;;;;13.75;9.63;;;10.50;68.40;12.40;101976.00;;;;5027536;28;20196;-75
2023/11/18 05:17:53;;;;;;;14.55;10.07;;;10.50;68.40;12.40;101978.00;;;;5026893;28;20200;-75
2023/11/18 05:20:21;;;;;;;15.07;11.48;;;10.50;68.40;12.40;101978.00;;;;5030654;28;20205;-75
2023/11/18 05:22:49;;;;;;;13.43;10.70;;;10.50;68.40;12.40;101980.00;;;;5030433;28;20996;-75
2023/11/18 05:25:17;;;;;;;13.25;10.32;;;10.50;68.40;12.40;101976.00;;;;5029342;28;20224;-75
2023/11/18 05:27:44;;;;;;;13.88;10.25;;;10.50;68.40;12.40;101973.00;;;;5030412;28;20224;-75
2023/11/18 05:30:13;;;;;;;12.93;10.10;;;10.50;68.40;12.40;101970.00;;;;5028815;28;20238;-75
2023/11/18 05:32:40;;;;;;;15.52;10.57;;;10.60;68.50;12.40;101966.00;;;;5030717;28;20258;-75
2023/11/18 05:35:11;;;;;;;13.82;9.98;;;10.50;68.40;12.40;101957.00;;;;5029327;28;20203;-75
2023/11/18 05:37:40;;;;;;;14.15;10.07;;;10.50;68.50;12.50;101959.00;;;;5028533;28;20212;-75
2023/11/18 05:40:11;;;;;;;15.27;10.48;;;10.60;68.40;12.50;101954.00;;;;5027710;28;20290;-75
2023/11/18 05:42:41;;;;;;;13.57;9.85;;;10.60;68.50;12.50;101965.00;;;;5027002;28;20605;-75
2023/11/18 05:45:17;;;;;;;11.63;9.43;;;10.60;68.60;12.50;101960.00;;;;5031589;28;20302;-75
2023/11/18 05:47:44;;;;;;;16.95;10.15;;;10.60;68.40;12.50;101941.00;;;;5037054;28;20271;-75
2023/11/18 05:50:14;;;;;;;14.93;10.30;;;10.60;68.40;12.50;101932.00;;;;5042404;28;20656;-75
2023/11/18 05:52:42;;;;;;;13.60;10.05;;;10.60;68.40;12.50;101942.00;;;;5032819;28;20212;-75
2023/11/18 05:55:09;;;;;;;15.02;10.82;;;10.60;68.40;12.50;101933.00;;;;5029857;28;20254;-75
2023/11/18 05:57:37;;;;;;;16.00;10.20;;;10.60;68.40;12.50;101927.00;;;;5038689;28;20273;-75
2023/11/18 06:00:09;;;;;;;16.35;9.43;;;10.60;68.40;12.50;101926.00;;;;5028666;28;20196;-75
2023/11/18 06:02:39;;;;;;;14.40;9.50;;;10.60;68.40;12.50;101927.00;;;;5027343;28;20278;-75
2023/11/18 06:05:07;;;;;;;13.82;9.90;;;10.70;68.50;12.60;101928.00;;;;5023458;28;20224;-75
2023/11/18 06:07:36;;;;;;;11.88;8.48;;;10.70;68.50;12.60;101934.00;;;;5023927;28;20279;-76
2023/11/18 06:10:05;;;;;;;13.45;9.45;;;10.70;68.50;12.60;101924.00;;;;5026562;28;20200;-75
2023/11/18 06:12:32;;;;;;;13.27;9.15;;;10.70;68.40;12.60;101916.00;;;;5027979;28;20244;-75
2023/11/18 06:15:00;;;;;;;13.13;9.80;;;10.70;68.40;12.60;101923.00;;;;5027620;28;20192;-76
2023/11/18 06:17:28;;;;;;;15.10;9.85;;;10.70;68.40;12.60;101925.00;;;;5022563;28;20199;-76
2023/11/18 06:19:56;;;;;;;13.00;9.32;;;10.70;68.40;12.60;101927.00;;;;5023292;28;20204;-76
2023/11/18 06:22:24;;;;;;;14.63;10.10;;;10.70;68.40;12.60;101921.00;;;;5036795;28;20215;-76
2023/11/18 06:24:52;;;;;;;22.10;15.00;;;10.70;68.40;12.50;101917.00;;;;5022203;28;20459;-77
2023/11/18 06:27:23;;;;;;;16.50;12.07;;;10.60;68.70;12.60;101919.00;;;;5031929;28;20215;-76
2023/11/18 06:29:54;;;;;;;17.65;11.27;;;10.70;69.00;12.70;101909.00;;;;5041725;28;20198;-77
2023/11/18 06:32:21;;;;;;;14.05;11.20;;;10.70;68.80;12.70;101902.00;;;;5039345;28;20200;-78
2023/11/18 06:34:51;;;;;;;15.07;9.80;;;10.70;68.60;12.60;101894.00;;;;5023304;28;20213;-77
2023/11/18 06:37:18;;;;;;;15.10;9.32;;;10.80;68.50;12.70;101901.00;;;;5031440;28;20195;-77
2023/11/18 06:39:48;;;;;;;11.88;8.38;;;10.80;68.40;12.70;101906.00;;;;5025280;28;20196;-77
2023/11/18 06:42:17;;;;;;;13.35;9.30;;;10.80;68.40;12.60;101906.00;;;;5029132;28;20196;-77
2023/11/18 06:44:44;;;;;;;16.90;10.10;;;10.80;68.40;12.70;101914.00;;;;5033451;28;20216;-77
2023/11/18 06:47:12;;;;;;;14.70;10.32;;;10.80;68.30;12.70;101920.00;;;;5034298;28;20576;-78
2023/11/18 06:49:41;;;;;;;13.00;9.25;;;10.80;68.30;12.70;101908.00;;;;5033652;28;20204;-77
2023/11/18 06:52:11;;;;;;;14.25;9.80;;;10.80;68.30;12.70;101906.00;;;;5033519;28;20204;-78
2023/11/18 06:54:38;;;;;;;17.10;9.80;;;10.80;68.30;12.70;101905.00;;;;5034662;28;20578;-78
2023/11/18 06:57:08;;;;;;;12.90;9.18;;;10.80;68.30;12.60;101918.00;;;;5022295;28;20239;-78
2023/11/18 06:59:36;;;;;;;11.48;9.23;;;10.80;68.30;12.70;101916.00;;;;5037202;28;20196;-77
2023/11/18 07:02:05;;;;;;;14.48;8.88;;;10.80;68.30;12.70;101911.00;;;;5031552;28;20219;-77
2023/11/18 07:04:32;;;;;;;13.48;8.43;;;10.80;68.30;12.70;101913.00;;;;5023971;28;20228;-77
2023/11/18 07:06:59;;;;;;;17.00;10.00;;;10.80;68.20;12.70;101901.00;;;;5028791;28;20193;-76
2023/11/18 07:09:29;;;;;;;12.82;9.05;;;10.80;68.20;12.70;101897.00;;;;5031664;28;20207;-76
2023/11/18 07:11:56;;;;;;;13.18;8.68;;;10.80;68.20;12.70;101889.00;;;;5037428;28;20565;-76
2023/11/18 07:14:25;;;;;;;10.93;8.65;;;10.80;68.20;12.70;101899.00;;;;5036304;28;20206;-77
2023/11/18 07:16:53;;;;;;;12.52;8.98;;;10.80;68.20;12.70;101897.00;;;;5033500;28;20192;-77
2023/11/18 07:19:20;;;;;;;11.68;8.40;;;10.80;68.30;12.70;101907.00;;;;5035691;28;20223;-77
2023/11/18 07:21:48;;;;;;;13.05;8.55;;;10.80;68.30;12.70;101908.00;;;;5034672;28;20207;-77
2023/11/18 07:24:14;;;;;;;11.93;8.32;;;10.80;68.30;12.70;101911.00;;;;5032862;28;20227;-77
2023/11/18 07:26:42;;;;;;;10.75;8.35;;;10.80;68.20;12.60;101910.00;;;;5035712;28;20200;-77
2023/11/18 07:29:09;;;;;;;15.35;9.10;;;10.80;68.20;12.60;101911.00;;;;5028814;28;20192;-77
2023/11/18 07:31:36;;;;;;;13.55;8.68;;;10.80;68.20;12.70;101921.00;;;;5032165;28;20200;-77
2023/11/18 07:34:05;;;;;;;12.68;7.97;;;10.80;68.20;12.60;101926.00;;;;5035011;28;20207;-77
2023/11/18 07:36:33;;;;;;;13.07;9.00;;;10.80;68.30;12.70;101931.00;;;;5036661;28;20285;-77
2023/11/18 07:39:00;;;;;;;12.18;8.75;;;10.80;68.30;12.70;101938.00;;;;5027184;28;20200;-78
2023/11/18 07:41:32;;;;;;;11.15;7.82;;;10.80;68.30;12.60;101935.00;;;;5029919;28;20634;-77
2023/11/18 07:44:02;;;;;;;12.68;8.65;;;10.80;68.30;12.70;101930.00;;;;5032432;28;20191;-77
2023/11/18 07:46:30;;;;;;;11.50;8.65;;;10.80;68.30;12.70;101921.00;;;;5026796;28;20199;-77
2023/11/18 07:48:57;;;;;;;11.95;8.57;;;10.80;68.30;12.70;101918.00;;;;5033169;28;20203;-77
2023/11/18 07:51:28;;;;;;;11.38;8.82;;;10.80;68.30;12.70;101915.00;;;;5030423;28;20416;-77
2023/11/18 07:53:55;;;;;;;11.25;8.48;;;10.80;68.30;12.70;101907.00;;;;5027598;28;20200;-78
2023/11/18 07:56:23;;;;;;;10.40;8.13;;;10.80;68.30;12.70;101911.00;;;;5026756;28;20205;-77
2023/11/18 07:58:51;;;;;;;11.50;8.27;;;10.80;68.40;12.80;101910.00;;;;5035697;28;20192;-77
2023/11/18 08:01:21;;;;;;;9.57;6.78;;;10.90;68.50;12.70;101907.00;;;;5026830;28;20207;-77
2023/11/18 08:03:48;;;;;;;12.13;8.15;;;10.90;68.40;12.80;101913.00;;;;5028221;28;20202;-77
2023/11/18 08:06:15;;;;;;;10.88;7.57;;;10.90;68.40;12.80;101907.00;;;;5026685;28;20258;-77
2023/11/18 08:08:43;;;;;;;10.18;7.38;;;10.90;68.50;12.80;101908.00;;;;5028046;28;20207;-77
2023/11/18 08:11:12;;;;;;;9.73;7.38;;;10.90;68.50;12.80;101910.00;;;;5019695;28;20205;-75
2023/11/18 08:13:39;;;;;;;11.18;7.22;;;10.90;68.50;12.80;101905.00;;;;5025444;28;20208;-75
2023/11/18 08:16:08;;;;;;;9.15;7.10;;;11.00;68.50;12.80;101893.00;;;;5031344;28;20196;-74
2023/11/18 08:18:35;;;;;;;13.23;7.15;;;11.00;68.50;12.80;101893.00;;;;5030371;28;20192;-74
2023/11/18 08:21:04;;;;;;;10.20;7.80;;;11.00;68.40;12.80;101880.00;;;;5029690;28;20279;-74
2023/11/18 08:23:31;;;;;;;12.25;7.35;;;11.00;68.30;12.80;101874.00;;;;5030840;28;20201;-74
2023/11/18 08:26:05;;;;;;;11.00;7.15;;;11.00;68.40;12.70;101875.00;;;;5029489;28;20767;-74
2023/11/18 08:28:32;;;;;;;10.25;6.40;;;11.00;68.40;12.80;101862.00;;;;5029960;28;20207;-74
2023/11/18 08:31:00;;;;;;;9.13;7.05;;;11.00;68.40;12.80;101857.00;;;;5031141;28;20207;-77
2023/11/18 08:33:28;;;;;;;10.68;6.68;;;11.00;68.40;12.80;101854.00;;;;5029914;28;20220;-77
2023/11/18 08:35:56;;;;;;;10.30;6.85;;;11.00;68.40;12.80;101847.00;;;;5021993;28;20193;-77
2023/11/18 08:38:24;;;;;;;7.53;5.88;;;11.00;68.50;12.90;101850.00;;;;5029383;28;20581;-76
2023/11/18 08:40:51;;;;;;;10.48;6.40;;;11.10;68.60;12.90;101850.00;;;;5030823;28;20572;-75
2023/11/18 08:43:20;;;;;;;10.85;6.57;;;11.10;68.60;12.90;101836.00;;;;5031892;28;20231;-73
2023/11/18 08:45:49;;;;;;;10.70;6.65;;;11.10;68.60;12.90;101830.00;;;;5031505;28;20220;-73
2023/11/18 08:48:18;;;;;;;9.02;6.07;;;11.10;68.60;12.90;101832.00;;;;5031817;28;20283;-76
2023/11/18 08:50:45;;;;;;;9.10;5.65;;;11.10;68.70;13.00;101841.00;;;;5031112;28;20211;-76
2023/11/18 08:53:12;;;;;;;8.25;5.75;;;11.20;68.70;13.00;101839.00;;;;5031044;28;20201;-76
2023/11/18 08:55:39;;;;;;;8.02;6.35;;;11.20;68.70;13.00;101841.00;;;;5031186;28;20219;-76
2023/11/18 08:58:18;;;;;;;8.55;6.70;;;11.20;68.70;13.00;101823.00;;;;5028864;28;21206;-76
2023/11/18 09:00:52;;;;;;;7.10;5.72;;;11.20;68.70;13.00;101819.00;;;;5029273;28;20712;-76
2023/11/18 09:03:28;;;;;;;8.23;5.63;;;11.30;68.70;13.10;101804.00;;;;5028857;28;20200;-76
2023/11/18 09:05:58;;;;;;;8.20;5.75;;;11.30;68.70;13.10;101809.00;;;;5030668;28;20216;-76
2023/11/18 09:08:27;;;;;;;8.02;5.60;;;11.30;68.60;13.10;101798.00;;;;5030544;28;20196;-76
2023/11/18 09:10:55;;;;;;;8.55;5.78;;;11.30;68.50;13.10;101800.00;;;;5029841;28;20296;-77
2023/11/18 09:13:26;;;;;;;7.63;6.07;;;11.30;68.50;13.10;101803.00;;;;5030518;28;20207;-76
2023/11/18 09:15:56;;;;;;;6.85;5.65;;;11.40;68.50;13.10;101798.00;;;;5030490;28;20258;-77
2023/11/18 09:18:24;;;;;;;7.85;5.15;;;11.40;68.50;13.10;101792.00;;;;5047486;28;20203;-77
2023/11/18 09:20:54;;;;;;;8.35;5.80;;;11.40;68.50;13.20;101785.00;;;;5030570;28;20296;-77
2023/11/18 09:23:25;;;;;;;6.72;5.15;;;11.40;68.50;13.20;101769.00;;;;5031005;28;20658;-77
2023/11/18 09:25:53;;;;;;;6.10;4.75;;;11.40;68.50;13.20;101763.00;;;;5028501;28;20292;-81
2023/11/18 09:28:20;;;;;;;7.22;5.25;;;11.40;68.50;13.20;101760.00;;;;5029007;28;20206;-77
2023/11/18 09:30:50;;;;;;;7.18;4.47;;;11.40;68.50;13.20;101763.00;;;;5026753;28;20207;-77
2023/11/18 09:33:28;;;;;;;5.80;4.65;;;11.40;68.50;13.20;101764.00;;;;5028658;28;20216;-77
2023/11/18 09:35:59;;;;;;;8.15;4.82;;;11.50;68.50;13.20;101761.00;;;;5030200;28;20192;-77
2023/11/18 09:38:28;;;;;;;6.85;4.57;;;11.50;68.50;13.20;101764.00;;;;5029302;28;20243;-77
2023/11/18 09:40:57;;;;;;;7.18;3.80;;;11.50;68.50;13.20;101748.00;;;;5030342;28;20211;-77
2023/11/18 09:43:26;;;;;;;6.70;4.50;;;11.50;68.50;13.20;101726.00;;;;5029264;28;20215;-77
2023/11/18 09:45:57;;;;;;;6.38;4.07;;;11.50;68.50;13.20;101711.00;;;;5028552;28;20295;-77
2023/11/18 09:48:26;;;;;;;6.78;3.72;;;11.50;68.50;13.20;101712.00;;;;5030415;28;20193;-77
2023/11/18 09:50:54;;;;;;;8.30;4.40;;;11.50;68.50;13.30;101712.00;;;;5031025;28;20204;-78
2023/11/18 09:53:25;;;;;;;5.97;3.75;;;11.50;68.50;13.30;101719.00;;;;5025034;28;20250;-78
2023/11/18 09:56:01;;;;;;;5.40;4.20;;;11.50;68.50;13.20;101718.00;;;;5028385;28;20193;-78
2023/11/18 09:58:40;;;;;;;5.43;3.17;;;11.50;68.50;13.20;101723.00;;;;5027754;28;20231;-78
2023/11/18 10:01:13;;;;;;;4.20;3.28;;;11.50;68.60;13.30;101715.00;;;;5028571;28;20294;-78
2023/11/18 10:03:45;;;;;;;5.78;3.45;;;11.50;68.60;13.30;101721.00;;;;5029753;28;20188;-78
2023/11/18 10:06:14;;;;;;;5.00;3.15;;;11.50;68.70;13.30;101721.00;;;;5029453;28;20232;-77
2023/11/18 10:08:45;;;;;;;5.93;3.70;;;11.60;68.80;13.40;101722.00;;;;5030116;28;20208;-77
2023/11/18 10:11:13;;;;;;;3.97;3.22;;;11.60;68.90;13.40;101718.00;;;;5027323;28;20204;-78
2023/11/18 10:13:44;;;;;;;7.78;3.58;;;11.60;69.00;13.40;101701.00;;;;5025144;28;20196;-78
2023/11/18 10:16:11;;;;;;;3.40;2.83;;;11.60;69.00;13.40;101705.00;;;;5024248;28;20196;-77
2023/11/18 10:18:51;;;;;;;5.57;3.10;;;11.70;69.00;13.40;101700.00;;;;5024490;28;20196;-78
2023/11/18 10:21:39;;;;;;;4.68;3.88;;;11.70;69.00;13.40;101695.00;;;;5030478;28;20196;-78
2023/11/18 10:24:14;;;;;;;5.00;3.50;;;11.70;68.90;13.50;101699.00;;;;5026754;28;20208;-82
2023/11/18 10:26:45;;;;;;;5.80;3.10;;;11.70;68.90;13.50;101710.00;;;;5029640;28;20274;-77
2023/11/18 10:29:13;;;;;;;5.93;3.10;;;11.70;68.90;13.50;101722.00;;;;5022144;28;20193;-78
2023/11/18 10:31:44;;;;;;;4.80;2.90;;;11.70;68.80;13.50;101723.00;;;;5021635;28;20659;-78
2023/11/18 10:34:16;;;;;;;4.63;3.40;;;11.80;69.00;13.50;101721.00;;;;5025216;28;20243;-78
2023/11/18 10:37:02;;;;;;;4.85;2.72;;;11.80;69.00;13.40;101699.00;;;;5026361;28;20239;-78
2023/11/18 10:39:32;;;;;;;5.53;3.15;;;11.80;69.00;13.60;101694.00;;;;5027227;28;20222;-77
2023/11/18 10:42:01;;;;;;;3.78;2.60;;;11.80;69.00;13.60;101689.00;;;;5028105;28;20203;-78
2023/11/18 10:44:29;;;;;;;6.35;3.10;;;11.80;69.00;13.60;101680.00;;;;5022108;28;20204;-78
2023/11/18 10:46:58;;;;;;;4.63;3.10;;;11.80;69.10;13.60;101670.00;;;;5026859;28;20228;-78